Time;durP1;ratioP1;P1;durP2;ratioP2;P2;SDS_P1;SDS_P2;PMS_P1;PMS_P2;Temp;Humidity;BMP_temperature;BMP_pressure;BME280_temperature;BME280_humidity;BME280_pressure;Samples;Min_cycle;Max_cycle;Signal;HPM_P1;HPM_P2
2021/04/12 00:02:14;;;;;;;0.95;0.68;;;6.20;99.90;;;;;;4996232;28;20042;-81
2021/04/12 00:04:49;;;;;;;3.40;1.08;;;6.10;99.90;;;;;;4996767;28;20034;-84
2021/04/12 00:07:18;;;;;;;6.53;1.30;;;6.10;99.90;;;;;;4995970;28;20026;-84
2021/04/12 00:09:54;;;;;;;2.63;1.38;;;6.10;99.90;;;;;;4995688;28;20065;-82
2021/04/12 00:12:26;;;;;;;4.32;1.38;;;6.10;99.90;;;;;;4996377;28;20023;-82
2021/04/12 00:15:06;;;;;;;2.85;1.10;;;6.00;99.90;;;;;;4996905;28;20049;-85
2021/04/12 00:17:44;;;;;;;2.25;1.30;;;6.00;99.90;;;;;;4995359;28;20038;-85
2021/04/12 00:20:35;;;;;;;2.00;0.82;;;5.90;99.90;;;;;;4996013;28;20030;-84
2021/04/12 00:23:13;;;;;;;1.90;1.00;;;5.90;99.90;;;;;;4986879;28;20050;-82
2021/04/12 00:26:02;;;;;;;1.77;0.80;;;5.80;99.90;;;;;;4994752;28;20505;-82
2021/04/12 00:28:40;;;;;;;0.93;0.60;;;5.70;99.90;;;;;;4986660;28;20039;-82
2021/04/12 00:31:18;;;;;;;2.30;1.00;;;5.60;99.90;;;;;;4995465;28;20043;-83
2021/04/12 00:34:12;;;;;;;1.83;1.00;;;5.60;99.90;;;;;;4980247;28;20030;-83
2021/04/12 00:36:44;;;;;;;1.77;1.10;;;5.50;99.90;;;;;;4994622;28;20088;-82
2021/04/12 00:39:35;;;;;;;2.65;0.98;;;5.50;99.90;;;;;;4994564;28;20073;-83
2021/04/12 00:42:25;;;;;;;1.50;0.90;;;5.50;99.90;;;;;;4995623;28;20054;-83
2021/04/12 00:45:13;;;;;;;2.90;1.00;;;5.50;99.90;;;;;;5011843;28;20614;-82
2021/04/12 00:47:56;;;;;;;2.15;1.00;;;5.50;99.90;;;;;;4971168;28;20042;-82
2021/04/12 00:51:00;;;;;;;5.65;1.30;;;5.50;99.90;;;;;;4996748;28;20037;-84
2021/04/12 00:53:46;;;;;;;2.92;1.70;;;5.50;99.90;;;;;;4979121;28;20061;-82
2021/04/12 00:56:17;;;;;;;2.40;1.70;;;5.40;99.90;;;;;;4979383;28;20026;-82
2021/04/12 00:58:47;;;;;;;3.15;1.67;;;5.30;99.90;;;;;;4962920;28;20057;-84
2021/04/12 01:01:13;;;;;;;4.07;1.80;;;5.40;99.90;;;;;;4978786;28;20173;-82
2021/04/12 01:04:00;;;;;;;2.85;1.65;;;5.30;99.90;;;;;;4996588;28;20077;-83
2021/04/12 01:06:29;;;;;;;2.40;1.40;;;5.40;99.90;;;;;;4967725;28;20057;-82
2021/04/12 01:09:19;;;;;;;3.97;1.73;;;5.40;99.90;;;;;;4977304;28;20022;-82
2021/04/12 01:11:48;;;;;;;3.03;1.65;;;5.30;99.90;;;;;;4979050;28;20117;-82
2021/04/12 01:14:50;;;;;;;2.90;1.67;;;5.30;99.90;;;;;;4979042;28;20030;-82
2021/04/12 01:17:50;;;;;;;2.78;1.70;;;5.10;99.90;;;;;;4977470;28;20019;-82
2021/04/12 01:20:34;;;;;;;3.17;1.77;;;5.10;99.90;;;;;;4977782;28;20022;-82
2021/04/12 01:23:34;;;;;;;3.92;1.85;;;5.00;99.90;;;;;;4977279;28;20474;-81
2021/04/12 01:26:37;;;;;;;3.45;1.73;;;5.00;99.90;;;;;;4976674;28;20046;-82
2021/04/12 01:29:24;;;;;;;1.80;1.50;;;5.10;99.90;;;;;;4977254;28;20454;-83
2021/04/12 01:32:28;;;;;;;3.35;1.67;;;5.10;99.90;;;;;;4977535;28;20030;-81
2021/04/12 01:35:12;;;;;;;6.22;1.77;;;5.10;99.90;;;;;;4935083;28;20046;-82
2021/04/12 01:37:43;;;;;;;3.65;1.50;;;5.20;99.90;;;;;;4977260;28;20393;-84
2021/04/12 01:40:25;;;;;;;3.40;1.50;;;5.10;99.90;;;;;;4978130;28;20026;-82
2021/04/12 01:43:17;;;;;;;2.33;0.85;;;5.10;99.90;;;;;;4970131;28;20046;-84
2021/04/12 01:46:12;;;;;;;1.90;0.85;;;5.10;99.90;;;;;;4984614;28;20371;-83
2021/04/12 01:48:39;;;;;;;4.75;1.73;;;5.10;99.90;;;;;;4994370;28;20386;-82
2021/04/12 01:51:18;;;;;;;3.42;1.50;;;5.10;99.90;;;;;;4994344;28;20022;-82
2021/04/12 01:54:21;;;;;;;2.65;1.67;;;5.10;99.90;;;;;;4989138;28;20026;-82
2021/04/12 01:57:25;;;;;;;4.70;1.33;;;5.10;99.90;;;;;;4991021;28;20113;-83
2021/04/12 02:00:12;;;;;;;3.50;1.83;;;5.00;99.90;;;;;;4994296;28;20053;-81
2021/04/12 02:03:05;;;;;;;2.72;1.88;;;5.00;99.90;;;;;;4987647;28;20030;-82
2021/04/12 02:05:58;;;;;;;2.97;2.10;;;5.00;99.90;;;;;;5010590;28;20382;-82
2021/04/12 02:08:48;;;;;;;2.17;1.50;;;4.90;99.90;;;;;;5010091;28;20027;-84
2021/04/12 02:11:23;;;;;;;4.22;1.80;;;4.90;99.90;;;;;;5010343;28;20038;-83
2021/04/12 02:14:07;;;;;;;2.53;1.70;;;4.90;99.90;;;;;;4993934;28;20084;-81
2021/04/12 02:16:33;;;;;;;4.15;1.50;;;4.80;99.90;;;;;;4994263;28;20019;-83
2021/04/12 02:19:30;;;;;;;8.88;1.58;;;4.90;99.90;;;;;;4994145;28;20034;-83
2021/04/12 02:22:21;;;;;;;3.78;1.30;;;5.00;99.90;;;;;;4994129;28;20068;-81
2021/04/12 02:25:16;;;;;;;2.40;1.50;;;5.00;99.90;;;;;;4980159;28;20026;-83
2021/04/12 02:28:16;;;;;;;3.05;1.50;;;5.00;99.90;;;;;;4978896;28;20034;-82
2021/04/12 02:30:50;;;;;;;3.85;1.58;;;5.00;99.90;;;;;;4993922;28;20026;-82
2021/04/12 02:33:41;;;;;;;3.92;1.67;;;5.10;99.90;;;;;;4993744;28;20038;-83
2021/04/12 02:36:28;;;;;;;3.55;1.58;;;5.00;99.90;;;;;;4993829;28;20057;-82
2021/04/12 02:39:12;;;;;;;3.17;1.60;;;4.90;99.90;;;;;;4987377;28;20026;-86
2021/04/12 02:41:44;;;;;;;7.43;2.10;;;4.90;99.90;;;;;;4993545;28;20038;-82
2021/04/12 02:45:01;;;;;;;3.20;1.80;;;4.80;99.90;;;;;;4993489;28;20374;-83
2021/04/12 02:47:36;;;;;;;2.95;2.10;;;4.70;99.90;;;;;;4954155;28;20078;-80
2021/04/12 02:50:28;;;;;;;2.50;1.55;;;4.70;99.90;;;;;;4988627;28;20100;-83
2021/04/12 02:53:31;;;;;;;3.67;2.00;;;4.60;99.90;;;;;;4987346;28;20045;-82
2021/04/12 02:56:27;;;;;;;8.68;1.90;;;4.60;99.90;;;;;;4993206;28;20433;-84
2021/04/12 02:59:11;;;;;;;3.35;1.70;;;4.50;99.90;;;;;;4973986;28;20035;-82
2021/04/12 03:01:55;;;;;;;2.10;1.52;;;4.50;99.90;;;;;;4993108;28;20048;-81
2021/04/12 03:04:24;;;;;;;4.00;1.63;;;4.40;99.90;;;;;;5009535;28;20462;-83
2021/04/12 03:07:01;;;;;;;3.42;1.65;;;4.40;99.90;;;;;;4992713;28;20031;-81
2021/04/12 03:09:54;;;;;;;3.13;2.10;;;4.30;99.90;;;;;;4993158;28;20054;-81
2021/04/12 03:12:50;;;;;;;5.20;2.47;;;4.30;99.90;;;;;;4993329;28;20027;-80
2021/04/12 03:15:37;;;;;;;4.93;1.60;;;4.40;99.90;;;;;;4989462;28;20061;-83
2021/04/12 03:18:22;;;;;;;3.17;1.25;;;4.40;99.90;;;;;;4979522;28;20151;-82
2021/04/12 03:21:15;;;;;;;4.15;1.63;;;4.40;99.90;;;;;;5009789;28;20130;-81
2021/04/12 03:23:59;;;;;;;3.85;1.40;;;4.50;99.90;;;;;;4990877;28;20438;-82
2021/04/12 03:27:02;;;;;;;2.90;1.50;;;4.50;99.90;;;;;;4990213;28;20081;-83
2021/04/12 03:29:44;;;;;;;5.50;1.70;;;4.40;99.90;;;;;;4990469;28;20026;-82
2021/04/12 03:32:29;;;;;;;1.80;1.40;;;4.40;99.90;;;;;;4993298;28;20034;-85
2021/04/12 03:35:22;;;;;;;5.53;1.60;;;4.40;99.90;;;;;;4994391;28;20474;-84
2021/04/12 03:38:03;;;;;;;2.63;1.33;;;4.30;99.90;;;;;;4992870;28;20426;-82
2021/04/12 03:40:40;;;;;;;4.07;1.50;;;4.30;99.90;;;;;;4985292;28;20150;-82
2021/04/12 03:43:27;;;;;;;4.20;1.65;;;4.30;99.90;;;;;;4993114;28;20458;-82
2021/04/12 03:45:53;;;;;;;7.43;1.60;;;4.30;99.90;;;;;;4993083;28;20042;-82
2021/04/12 03:48:34;;;;;;;4.35;1.35;;;4.30;99.90;;;;;;4992820;28;20483;-81
2021/04/12 03:51:06;;;;;;;5.22;2.25;;;5.00;99.90;;;;;;4997905;28;20029;-82
2021/04/12 03:53:53;;;;;;;4.15;1.60;;;5.10;99.90;;;;;;4998335;28;20455;-79
2021/04/12 03:56:27;;;;;;;2.85;1.50;;;4.90;99.90;;;;;;4992491;28;20033;-80
2021/04/12 03:59:08;;;;;;;4.32;1.77;;;4.80;99.90;;;;;;4995073;28;20034;-78
2021/04/12 04:01:40;;;;;;;6.00;2.05;;;4.70;99.90;;;;;;4994632;28;20041;-79
2021/04/12 04:04:27;;;;;;;5.53;1.23;;;4.60;99.90;;;;;;4987598;28;20026;-79
2021/04/12 04:07:14;;;;;;;2.70;1.50;;;4.60;99.90;;;;;;4994455;28;20112;-79
2021/04/12 04:10:02;;;;;;;1.77;1.25;;;4.60;99.90;;;;;;4986130;28;20061;-79
2021/04/12 04:12:57;;;;;;;3.08;1.98;;;4.60;99.90;;;;;;4984802;28;20023;-81
2021/04/12 04:15:45;;;;;;;21.90;11.52;;;4.60;99.90;;;;;;5005309;28;20042;-79
2021/04/12 04:18:37;;;;;;;12.00;6.25;;;4.50;99.90;;;;;;4995966;28;20034;-79
2021/04/12 04:21:18;;;;;;;15.68;4.80;;;4.50;99.90;;;;;;4994499;28;20101;-79
2021/04/12 04:23:59;;;;;;;7.82;3.30;;;4.60;99.90;;;;;;4993903;28;20458;-79
2021/04/12 04:26:39;;;;;;;10.60;2.90;;;4.60;99.90;;;;;;4994736;28;20030;-79
2021/04/12 04:29:32;;;;;;;6.53;3.38;;;4.60;99.90;;;;;;4994634;28;20027;-80
2021/04/12 04:32:40;;;;;;;6.22;2.95;;;4.60;99.90;;;;;;4994111;28;20117;-80
2021/04/12 04:35:34;;;;;;;6.20;3.45;;;4.70;99.90;;;;;;4974870;28;20039;-80
2021/04/12 04:38:30;;;;;;;7.78;3.30;;;4.70;99.90;;;;;;4993636;28;20035;-80
2021/04/12 04:41:17;;;;;;;5.03;3.17;;;4.80;99.90;;;;;;4993841;28;20103;-80
2021/04/12 04:43:51;;;;;;;10.32;3.17;;;4.80;99.90;;;;;;4987116;28;20125;-82
2021/04/12 04:46:36;;;;;;;5.53;3.33;;;4.80;99.90;;;;;;4993005;28;20046;-85
2021/04/12 04:49:29;;;;;;;4.00;2.22;;;4.90;99.90;;;;;;4993643;28;20026;-79
2021/04/12 04:51:54;;;;;;;7.85;3.65;;;6.30;99.90;;;;;;4994243;28;20382;-80
2021/04/12 04:54:54;;;;;;;8.88;2.05;;;7.70;99.90;;;;;;4978063;28;20030;-81
2021/04/12 04:57:50;;;;;;;9.25;2.50;;;7.50;99.00;;;;;;4977237;28;20549;-80
2021/04/12 05:00:25;;;;;;;3.38;2.72;;;8.30;97.50;;;;;;4960323;28;20053;-79
2021/04/12 05:03:28;;;;;;;12.63;5.20;;;8.90;96.10;;;;;;4977234;28;20062;-80
2021/04/12 05:06:11;;;;;;;10.05;2.85;;;8.60;95.30;;;;;;4994831;28;20466;-77
2021/04/12 05:08:59;;;;;;;9.23;3.60;;;8.20;97.00;;;;;;4976477;28;20573;-79
2021/04/12 05:11:52;;;;;;;5.70;2.22;;;8.10;98.20;;;;;;4986240;28;20031;-78
2021/04/12 05:14:30;;;;;;;17.40;2.83;;;8.50;95.80;;;;;;4976396;28;20120;-77
2021/04/12 05:17:14;;;;;;;45.30;4.22;;;8.70;95.90;;;;;;4968827;28;20394;-79
2021/04/12 05:20:17;;;;;;;14.02;3.53;;;8.60;98.00;;;;;;4987793;28;20148;-79
2021/04/12 05:23:16;;;;;;;23.17;3.25;;;9.60;94.10;;;;;;4971367;28;20035;-80
2021/04/12 05:26:17;;;;;;;75.32;6.95;;;9.60;93.70;;;;;;4963249;28;20026;-80
2021/04/12 05:29:17;;;;;;;62.63;5.40;;;9.60;94.20;;;;;;4919571;28;20096;-79
2021/04/12 05:31:58;;;;;;;10.27;3.70;;;10.00;93.60;;;;;;4970885;28;20023;-82
2021/04/12 05:34:48;;;;;;;21.55;4.78;;;9.40;93.10;;;;;;4976793;28;20492;-79
2021/04/12 05:37:40;;;;;;;16.25;5.35;;;9.30;94.10;;;;;;4993966;28;20101;-81
2021/04/12 05:40:43;;;;;;;16.10;5.43;;;9.00;95.00;;;;;;4976772;28;20026;-81
2021/04/12 05:43:47;;;;;;;21.15;7.53;;;9.50;93.50;;;;;;4993349;28;20034;-80
2021/04/12 05:46:34;;;;;;;11.63;4.90;;;9.90;93.00;;;;;;4993961;28;20039;-78
2021/04/12 05:49:31;;;;;;;28.02;5.47;;;10.20;91.40;;;;;;4976239;28;20026;-80
2021/04/12 05:52:03;;;;;;;41.40;7.47;;;10.40;91.10;;;;;;4977572;28;20065;-80
2021/04/12 05:54:53;;;;;;;62.85;8.05;;;9.80;93.00;;;;;;4977099;28;20026;-83
2021/04/12 05:57:56;;;;;;;51.03;8.50;;;10.30;94.20;;;;;;4976888;28;20434;-83
2021/04/12 06:00:35;;;;;;;41.67;5.53;;;10.10;91.90;;;;;;4985382;28;20030;-81
2021/04/12 06:03:36;;;;;;;12.50;6.07;;;9.50;94.30;;;;;;4976744;28;20466;-82
2021/04/12 06:06:40;;;;;;;30.20;5.60;;;9.90;94.60;;;;;;4963074;28;20042;-82
2021/04/12 06:09:33;;;;;;;19.30;4.40;;;9.90;93.30;;;;;;4960495;28;20034;-82
2021/04/12 06:12:14;;;;;;;25.00;4.25;;;9.60;94.30;;;;;;4976941;28;20030;-79
2021/04/12 06:14:46;;;;;;;45.03;6.25;;;9.50;94.40;;;;;;4968287;28;20378;-82
2021/04/12 06:17:26;;;;;;;20.17;6.13;;;9.20;95.30;;;;;;4976314;28;20044;-80
2021/04/12 06:20:10;;;;;;;34.92;5.13;;;9.00;95.80;;;;;;4976463;28;20022;-83
2021/04/12 06:22:42;;;;;;;22.25;4.47;;;9.10;96.50;;;;;;4989496;28;20038;-80
2021/04/12 06:25:13;;;;;;;19.58;4.18;;;9.30;95.50;;;;;;4970446;28;20084;-79
2021/04/12 06:28:03;;;;;;;78.47;6.72;;;9.30;95.60;;;;;;4974124;28;20147;-80
2021/04/12 06:30:48;;;;;;;16.75;4.38;;;9.60;95.00;;;;;;4988001;28;20022;-80
2021/04/12 06:33:31;;;;;;;10.73;4.10;;;9.70;96.30;;;;;;4970167;28;20031;-81
2021/04/12 06:36:34;;;;;;;22.23;4.65;;;9.90;97.60;;;;;;4967863;28;20067;-81
2021/04/12 06:39:22;;;;;;;29.15;4.78;;;9.80;97.60;;;;;;4975230;28;20026;-81
2021/04/12 06:42:22;;;;;;;16.73;4.30;;;9.90;97.90;;;;;;4975723;28;20034;-80
2021/04/12 06:45:16;;;;;;;120.05;76.75;;;10.20;97.10;;;;;;4975344;28;20034;-80
2021/04/12 06:47:56;;;;;;;23.67;6.30;;;10.30;97.20;;;;;;4975208;28;20022;-80
2021/04/12 06:50:47;;;;;;;13.70;3.53;;;10.40;97.70;;;;;;4970188;28;20152;-82
2021/04/12 06:53:43;;;;;;;22.52;4.28;;;10.60;97.00;;;;;;4968357;28;20080;-81
2021/04/12 06:57:02;;;;;;;10.13;3.65;;;10.80;97.40;;;;;;4991439;28;20029;-83
2021/04/12 07:00:06;;;;;;;22.00;5.60;;;11.10;96.90;;;;;;4980666;28;20120;-80
2021/04/12 07:03:05;;;;;;;37.75;6.35;;;11.20;96.30;;;;;;4917440;29;20048;-83
2021/04/12 07:05:30;;;;;;;38.38;5.20;;;11.30;96.20;;;;;;4933520;29;20086;-83
2021/04/12 07:08:34;;;;;;;51.00;6.40;;;11.50;96.30;;;;;;4954296;28;20034;-81
2021/04/12 07:11:31;;;;;;;43.97;6.55;;;11.70;96.20;;;;;;4991944;28;20026;-83
2021/04/12 07:14:16;;;;;;;48.90;4.70;;;12.30;95.40;;;;;;4992955;28;20023;-81
2021/04/12 07:16:53;;;;;;;6.20;2.08;;;12.50;95.80;;;;;;4975188;28;20030;-83
2021/04/12 07:19:56;;;;;;;22.35;3.30;;;12.50;94.70;;;;;;4975574;28;20033;-81
2021/04/12 07:22:52;;;;;;;17.85;3.10;;;12.70;95.50;;;;;;4986742;28;20046;-82
2021/04/12 07:25:39;;;;;;;1.98;0.90;;;13.10;95.50;;;;;;4971684;28;20030;-82
2021/04/12 07:28:22;;;;;;;1.88;0.57;;;13.20;93.80;;;;;;4989631;28;20035;-82
2021/04/12 07:31:16;;;;;;;2.45;1.60;;;13.40;92.80;;;;;;4980151;28;20084;-82
2021/04/12 07:33:57;;;;;;;3.60;1.45;;;13.40;93.20;;;;;;4976439;28;20038;-84
2021/04/12 07:36:36;;;;;;;1.00;0.50;;;13.50;93.10;;;;;;4998560;28;20517;-86
2021/04/12 07:39:01;;;;;;;2.65;0.82;;;13.70;92.50;;;;;;4979776;28;20429;-84
2021/04/12 07:41:48;;;;;;;1.63;1.40;;;13.70;92.30;;;;;;4980980;28;20093;-85
2021/04/12 07:44:28;;;;;;;4.30;3.30;;;13.90;93.00;;;;;;4976886;28;20023;-84
2021/04/12 07:47:16;;;;;;;2.90;1.13;;;14.00;92.70;;;;;;4985261;28;20053;-84
2021/04/12 07:49:59;;;;;;;2.05;0.80;;;14.20;92.20;;;;;;4992113;28;20030;-83
2021/04/12 07:52:34;;;;;;;2.42;1.33;;;14.40;91.90;;;;;;4993960;28;20022;-82
2021/04/12 07:55:00;;;;;;;8.60;2.60;;;14.50;91.10;;;;;;4988110;28;20391;-85
2021/04/12 07:57:49;;;;;;;5.47;2.03;;;14.50;92.30;;;;;;4997080;28;20039;-86
2021/04/12 08:00:36;;;;;;;3.40;1.40;;;14.60;90.90;;;;;;4995940;28;20030;-84
2021/04/12 08:03:27;;;;;;;4.80;1.40;;;14.70;91.70;;;;;;4995887;28;20065;-81
2021/04/12 08:05:53;;;;;;;80.30;6.88;;;14.70;91.40;;;;;;4995813;28;20030;-84
2021/04/12 08:08:41;;;;;;;19.10;2.40;;;14.80;92.30;;;;;;4996984;28;20023;-86
2021/04/12 08:11:38;;;;;;;19.63;4.93;;;15.00;91.40;;;;;;4994405;28;20026;-83
2021/04/12 08:14:13;;;;;;;3.55;1.33;;;15.20;91.70;;;;;;4985617;28;20033;-85
2021/04/12 08:17:09;;;;;;;4.10;1.27;;;15.40;90.90;;;;;;4996648;28;20031;-83
2021/04/12 08:19:45;;;;;;;8.00;1.35;;;15.70;91.20;;;;;;5002348;28;20058;-85
2021/04/12 08:22:36;;;;;;;5.95;1.30;;;15.90;90.70;;;;;;4998748;28;20050;-83
2021/04/12 08:25:30;;;;;;;197.13;14.35;;;16.20;89.00;;;;;;4992544;28;20474;-84
2021/04/12 08:28:15;;;;;;;9.00;1.70;;;16.20;88.60;;;;;;4991267;28;20030;-84
2021/04/12 08:30:40;;;;;;;10.85;1.85;;;16.40;87.80;;;;;;5000848;28;20022;-84
2021/04/12 08:33:43;;;;;;;26.20;2.50;;;16.60;86.60;;;;;;4989823;28;20034;-84
2021/04/12 08:36:46;;;;;;;5.55;1.15;;;16.80;83.80;;;;;;5012106;28;20485;-83
2021/04/12 08:39:24;;;;;;;34.08;27.70;;;16.90;84.00;;;;;;4986047;28;20524;-81
2021/04/12 08:42:21;;;;;;;71.40;6.80;;;17.20;83.60;;;;;;4995197;28;20069;-84
2021/04/12 08:45:04;;;;;;;11.05;1.00;;;17.30;81.70;;;;;;4994755;28;20022;-83
2021/04/12 08:47:45;;;;;;;3.78;1.10;;;17.30;78.50;;;;;;4977246;28;20448;-82
2021/04/12 08:50:13;;;;;;;10.70;1.55;;;17.40;80.20;;;;;;4976415;28;20158;-82
2021/04/12 08:52:54;;;;;;;6.32;1.33;;;17.60;81.00;;;;;;4978924;28;20088;-85
2021/04/12 08:55:57;;;;;;;14.48;2.30;;;17.70;79.80;;;;;;4979509;28;20026;-88
2021/04/12 08:59:00;;;;;;;19.10;7.53;;;17.90;78.20;;;;;;4995688;28;20031;-86
2021/04/12 09:02:13;;;;;;;6.82;1.02;;;18.00;77.50;;;;;;4979812;28;20050;-85
2021/04/12 09:05:06;;;;;;;2.60;0.80;;;18.00;76.20;;;;;;4971541;28;20137;-86
2021/04/12 09:07:45;;;;;;;6.28;1.00;;;17.90;74.50;;;;;;4960762;28;20039;-86
2021/04/12 09:10:32;;;;;;;9.98;1.52;;;17.70;73.10;;;;;;4975422;28;20561;-84
2021/04/12 09:13:37;;;;;;;2.78;0.63;;;17.60;76.00;;;;;;4979836;28;20031;-88
2021/04/12 09:16:42;;;;;;;9.45;1.13;;;17.50;73.70;;;;;;4966249;28;20034;-84
2021/04/12 09:19:29;;;;;;;1.98;0.60;;;17.30;74.40;;;;;;4995852;28;20034;-87
2021/04/12 09:21:57;;;;;;;6.72;0.93;;;17.40;76.10;;;;;;4963572;28;20034;-86
2021/04/12 09:24:49;;;;;;;3.95;0.60;;;17.50;76.50;;;;;;4981573;28;20470;-86
2021/04/12 09:27:45;;;;;;;3.53;1.00;;;17.70;75.70;;;;;;4982093;28;20023;-87
2021/04/12 09:30:38;;;;;;;9.50;0.93;;;17.80;73.30;;;;;;4975685;28;20037;-89
2021/04/12 09:33:22;;;;;;;5.85;0.52;;;17.90;74.70;;;;;;4978297;28;20109;-89
2021/04/12 09:36:36;;;;;;;12.88;1.20;;;17.90;74.60;;;;;;4978216;28;20038;-85
2021/04/12 09:39:23;;;;;;;123.93;10.85;;;17.90;74.40;;;;;;4933756;28;20030;-88
2021/04/12 09:42:33;;;;;;;8.52;0.80;;;18.00;74.20;;;;;;4977474;28;20030;-86
2021/04/12 09:45:40;;;;;;;17.27;5.88;;;18.00;73.70;;;;;;4971007;28;20026;-89
2021/04/12 09:48:28;;;;;;;13.10;1.50;;;18.10;72.90;;;;;;4993797;28;20038;-88
2021/04/12 09:51:12;;;;;;;8.10;0.60;;;18.10;72.60;;;;;;4995228;28;20505;-87
2021/04/12 09:54:15;;;;;;;2.08;0.57;;;18.10;72.60;;;;;;5012489;28;20038;-86
2021/04/12 09:57:05;;;;;;;1.50;0.45;;;18.20;72.70;;;;;;4994067;28;20113;-83
2021/04/12 10:00:08;;;;;;;2.75;0.30;;;18.30;71.20;;;;;;4992559;28;20101;-84
2021/04/12 10:03:07;;;;;;;5.38;0.47;;;18.40;70.30;;;;;;5010144;28;20076;-84
2021/04/12 10:06:02;;;;;;;2.97;0.43;;;18.60;70.40;;;;;;4983660;28;20022;-86
2021/04/12 10:09:06;;;;;;;21.60;1.45;;;18.80;67.00;;;;;;4995020;28;20038;-85
2021/04/12 10:11:50;;;;;;;4.10;0.57;;;18.90;65.50;;;;;;4992200;28;20049;-81
2021/04/12 10:14:18;;;;;;;5.03;0.47;;;18.90;61.70;;;;;;4995447;28;20509;-79
2021/04/12 10:17:06;;;;;;;7.20;0.50;;;18.90;63.00;;;;;;4994453;28;20054;-80
2021/04/12 10:20:13;;;;;;;4.28;0.50;;;19.10;61.90;;;;;;4989872;28;20038;-78
2021/04/12 10:22:41;;;;;;;6.85;1.98;;;19.30;61.30;;;;;;4922374;29;20486;-84
2021/04/12 10:25:14;;;;;;;1.80;0.50;;;19.40;62.40;;;;;;4917386;29;20023;-79
2021/04/12 10:27:44;;;;;;;0.63;0.20;;;19.40;58.10;;;;;;4955957;28;20037;-79
2021/04/12 10:30:33;;;;;;;2.40;0.30;;;19.40;60.30;;;;;;4992849;28;20113;-81
2021/04/12 10:33:02;;;;;;;4.18;0.20;;;19.40;59.40;;;;;;4991159;28;20117;-80
2021/04/12 10:35:46;;;;;;;0.90;0.30;;;19.40;60.50;;;;;;4985748;28;20124;-81
2021/04/12 10:38:23;;;;;;;27.88;18.88;;;19.50;59.60;;;;;;4984488;28;20481;-85
2021/04/12 10:41:32;;;;;;;6.38;3.17;;;19.50;59.80;;;;;;4991918;28;20031;-84
2021/04/12 10:44:36;;;;;;;4.28;3.88;;;19.50;59.80;;;;;;4959841;28;20034;-80
2021/04/12 10:47:19;;;;;;;20.40;10.90;;;19.50;59.90;;;;;;5007507;28;20074;-79
2021/04/12 10:50:03;;;;;;;127.65;9.30;;;19.60;59.10;;;;;;4991254;28;20032;-78
2021/04/12 10:52:34;;;;;;;2.72;0.30;;;19.60;58.20;;;;;;4989429;28;20029;-80
2021/04/12 10:55:21;;;;;;;53.88;4.38;;;19.60;57.20;;;;;;4988471;28;20121;-79
2021/04/12 10:58:23;;;;;;;0.43;0.15;;;19.50;56.10;;;;;;4990619;28;20517;-78
2021/04/12 11:01:06;;;;;;;7.18;0.45;;;19.30;56.60;;;;;;4992853;28;20038;-78
2021/04/12 11:03:44;;;;;;;9.38;0.75;;;19.30;59.10;;;;;;4995086;28;20089;-78
2021/04/12 11:06:42;;;;;;;1.13;0.20;;;19.30;58.70;;;;;;4994097;28;20465;-80
2021/04/12 11:09:14;;;;;;;8.00;0.80;;;19.40;59.00;;;;;;4996050;28;20040;-79
2021/04/12 11:11:55;;;;;;;2.20;0.30;;;19.40;58.50;;;;;;4995786;28;20478;-80
2021/04/12 11:14:31;;;;;;;5.05;0.50;;;19.40;57.30;;;;;;4988129;28;20030;-81
2021/04/12 11:17:17;;;;;;;1.45;0.20;;;19.40;58.00;;;;;;4994822;28;20160;-81
2021/04/12 11:20:07;;;;;;;8.70;0.70;;;19.40;57.80;;;;;;4990494;28;20038;-80
2021/04/12 11:22:46;;;;;;;4.05;0.30;;;19.30;58.60;;;;;;4990428;28;20068;-79
2021/04/12 11:25:31;;;;;;;24.25;1.27;;;19.30;58.30;;;;;;4996568;28;20529;-78
2021/04/12 11:28:08;;;;;;;;;;;19.20;57.70;;;;;;4985411;28;20492;-80
2021/04/12 11:30:39;;;;;;;;;;;19.20;57.00;;;;;;4994235;28;19913;-81
2021/04/12 11:33:16;;;;;;;86.75;7.63;;;19.00;57.30;;;;;;4995516;28;19945;-78
2021/04/12 11:36:19;;;;;;;13.18;0.75;;;18.90;57.90;;;;;;4995438;28;20434;-82
2021/04/12 11:39:09;;;;;;;3.08;2.25;;;18.80;58.00;;;;;;4990623;28;20429;-79
2021/04/12 11:41:41;;;;;;;3.63;0.28;;;18.80;58.10;;;;;;4989669;28;20030;-80
2021/04/12 11:44:14;;;;;;;5.13;0.63;;;18.90;58.60;;;;;;4995850;28;20034;-80
2021/04/12 11:46:57;;;;;;;4.35;0.35;;;18.80;58.50;;;;;;4964238;28;20065;-79
2021/04/12 11:49:52;;;;;;;19.52;1.17;;;18.80;58.90;;;;;;4977476;28;20026;-84
2021/04/12 11:52:29;;;;;;;6.97;0.45;;;18.70;59.50;;;;;;4974016;28;20064;-83
2021/04/12 11:55:17;;;;;;;20.63;1.10;;;18.60;60.60;;;;;;4976870;28;20023;-79
2021/04/12 11:58:11;;;;;;;17.40;0.90;;;18.50;60.80;;;;;;4957909;28;20022;-84
2021/04/12 12:01:01;;;;;;;33.35;2.50;;;18.40;61.10;;;;;;4955236;28;20105;-80
2021/04/12 12:03:46;;;;;;;13.73;0.98;;;18.30;61.50;;;;;;4975635;28;20078;-81
2021/04/12 12:06:30;;;;;;;53.20;2.50;;;18.20;61.70;;;;;;4959152;28;20549;-82
2021/04/12 12:09:08;;;;;;;37.10;13.85;;;18.20;61.40;;;;;;4959171;28;20034;-79
2021/04/12 12:11:54;;;;;;;13.90;1.67;;;18.20;61.40;;;;;;4958766;28;20038;-81
2021/04/12 12:14:39;;;;;;;35.40;3.47;;;18.10;60.50;;;;;;4959286;28;20022;-80
2021/04/12 12:17:15;;;;;;;10.80;0.80;;;18.10;62.30;;;;;;4959436;28;20030;-82
2021/04/12 12:19:59;;;;;;;5.15;1.30;;;18.00;61.20;;;;;;4960281;28;20062;-81
2021/04/12 12:22:43;;;;;;;1.08;0.20;;;18.10;61.30;;;;;;4959184;28;20096;-82
2021/04/12 12:25:28;;;;;;;13.93;0.80;;;18.00;61.30;;;;;;4958639;28;20027;-83
2021/04/12 12:28:28;;;;;;;15.70;1.20;;;18.00;60.00;;;;;;4959408;28;20034;-82
2021/04/12 12:34:18;;;;;;;10.05;0.88;;;18.00;60.40;;;;;;4976084;28;20042;-80
2021/04/12 12:36:49;;;;;;;8.75;0.95;;;18.10;61.70;;;;;;4958770;28;20066;-81
2021/04/12 12:39:30;;;;;;;36.67;2.55;;;18.20;61.20;;;;;;4958146;28;20018;-81
2021/04/12 12:42:01;;;;;;;119.18;7.70;;;18.20;62.90;;;;;;4959543;28;20037;-82
2021/04/12 12:44:29;;;;;;;27.63;1.58;;;18.20;62.30;;;;;;4959078;28;20050;-81
2021/04/12 12:46:55;;;;;;;7.13;0.65;;;18.10;61.60;;;;;;4958680;28;20051;-84
2021/04/12 12:49:31;;;;;;;18.15;1.42;;;18.10;62.30;;;;;;4958594;28;20105;-84
2021/04/12 12:52:09;;;;;;;31.40;2.55;;;18.10;63.50;;;;;;4962968;28;20023;-82
2021/04/12 12:54:42;;;;;;;13.93;1.90;;;18.00;66.20;;;;;;4975801;28;20037;-83
2021/04/12 12:57:20;;;;;;;21.83;1.50;;;17.90;71.70;;;;;;4961757;28;20494;-84
2021/04/12 12:59:56;;;;;;;24.38;2.25;;;17.80;74.60;;;;;;4959349;28;20027;-82
2021/04/12 13:02:24;;;;;;;41.63;3.60;;;17.40;76.90;;;;;;4959042;28;20486;-84
2021/04/12 13:05:24;;;;;;;10.18;1.55;;;17.20;81.50;;;;;;4959328;28;20031;-83
2021/04/12 13:07:53;;;;;;;14.38;1.65;;;17.10;84.80;;;;;;4948688;28;20390;-80
2021/04/12 13:10:18;;;;;;;8.38;1.20;;;16.90;83.90;;;;;;4957760;28;20057;-85
2021/04/12 13:12:49;;;;;;;6.78;1.23;;;16.80;83.90;;;;;;4958304;28;20474;-81
2021/04/12 13:15:30;;;;;;;9.20;1.63;;;16.80;85.00;;;;;;4957667;28;20443;-81
2021/04/12 13:18:05;;;;;;;2.78;1.50;;;16.70;85.80;;;;;;4973273;28;20093;-81
2021/04/12 13:20:44;;;;;;;4.82;1.10;;;16.60;86.50;;;;;;4974873;28;20467;-81
2021/04/12 13:23:19;;;;;;;5.05;1.00;;;16.60;86.10;;;;;;4969341;28;20054;-81
2021/04/12 13:25:50;;;;;;;1.27;0.63;;;16.50;85.60;;;;;;4972406;28;20178;-81
2021/04/12 13:28:41;;;;;;;1.05;0.57;;;16.40;87.20;;;;;;4975106;28;20208;-82
2021/04/12 13:31:21;;;;;;;1.77;0.73;;;16.30;87.60;;;;;;4973010;28;20026;-82
2021/04/12 13:33:52;;;;;;;14.15;1.45;;;16.20;89.00;;;;;;4975269;28;20030;-83
2021/04/12 13:36:35;;;;;;;6.97;1.30;;;16.20;90.20;;;;;;4957504;28;20027;-81
2021/04/12 13:39:07;;;;;;;4.93;1.55;;;16.10;91.50;;;;;;4956534;28;20023;-80
2021/04/12 13:41:38;;;;;;;5.57;2.80;;;16.00;93.60;;;;;;4956437;28;20046;-80
2021/04/12 13:44:10;;;;;;;5.80;1.40;;;15.80;94.40;;;;;;4957233;28;20023;-79
2021/04/12 13:47:06;;;;;;;42.03;5.10;;;15.70;95.90;;;;;;4956955;28;20089;-80
2021/04/12 13:49:41;;;;;;;59.85;4.28;;;15.70;96.60;;;;;;4974071;28;20058;-83
2021/04/12 13:52:12;;;;;;;12.85;2.60;;;15.60;96.50;;;;;;4974297;28;20022;-79
2021/04/12 13:54:58;;;;;;;11.23;4.32;;;15.60;97.70;;;;;;4957369;28;20114;-85
2021/04/12 13:57:41;;;;;;;6.57;2.50;;;15.50;97.70;;;;;;4975051;28;20101;-80
2021/04/12 14:00:28;;;;;;;6.68;2.00;;;15.30;97.80;;;;;;4975426;28;20031;-81
2021/04/12 14:03:06;;;;;;;4.47;2.17;;;15.30;99.80;;;;;;4965820;28;20537;-84
2021/04/12 14:05:38;;;;;;;2.70;2.22;;;15.30;99.40;;;;;;4957510;28;20023;-79
2021/04/12 14:08:20;;;;;;;8.70;5.75;;;15.20;99.90;;;;;;4953261;28;20447;-81
2021/04/12 14:10:55;;;;;;;12.02;3.38;;;15.10;99.90;;;;;;4974560;28;20027;-83
2021/04/12 14:13:26;;;;;;;3.53;1.40;;;15.00;99.90;;;;;;4949626;28;20023;-81
2021/04/12 14:15:51;;;;;;;9.55;3.90;;;14.90;99.90;;;;;;4949469;28;20035;-81
2021/04/12 14:18:34;;;;;;;7.05;4.35;;;14.70;99.90;;;;;;4953776;28;20082;-81
2021/04/12 14:21:12;;;;;;;10.23;5.53;;;14.70;99.90;;;;;;4965597;28;20449;-82
2021/04/12 14:24:00;;;;;;;9.50;5.22;;;14.60;99.90;;;;;;4956854;28;20066;-82
2021/04/12 14:26:37;;;;;;;16.55;10.80;;;14.50;99.90;;;;;;4974722;28;20061;-83